sensor_id;sensor_type;location;lat;lon;timestamp;P1;durP1;ratioP1;P2;durP2;ratioP2
75320;SDS011;68337;52.196;5.660;2023-08-06T00:00:37;10.30;;;9.10;;
75320;SDS011;68337;52.196;5.660;2023-08-06T00:03:03;10.65;;;8.40;;
75320;SDS011;68337;52.196;5.660;2023-08-06T00:05:29;12.20;;;9.23;;
75320;SDS011;68337;52.196;5.660;2023-08-06T00:07:55;16.00;;;9.45;;
75320;SDS011;68337;52.196;5.660;2023-08-06T00:10:21;10.63;;;9.55;;
75320;SDS011;68337;52.196;5.660;2023-08-06T00:12:46;14.75;;;10.60;;
75320;SDS011;68337;52.196;5.660;2023-08-06T00:15:13;11.45;;;9.88;;
75320;SDS011;68337;52.196;5.660;2023-08-06T00:17:39;13.00;;;9.75;;
75320;SDS011;68337;52.196;5.660;2023-08-06T00:20:05;13.57;;;10.88;;
75320;SDS011;68337;52.196;5.660;2023-08-06T00:22:34;13.00;;;10.00;;
75320;SDS011;68337;52.196;5.660;2023-08-06T00:25:02;11.02;;;9.60;;
75320;SDS011;68337;52.196;5.660;2023-08-06T00:27:28;17.90;;;10.65;;
75320;SDS011;68337;52.196;5.660;2023-08-06T00:29:54;11.65;;;10.18;;
75320;SDS011;68337;52.196;5.660;2023-08-06T00:32:20;12.10;;;10.30;;
75320;SDS011;68337;52.196;5.660;2023-08-06T00:34:46;11.27;;;10.07;;
75320;SDS011;68337;52.196;5.660;2023-08-06T00:37:14;11.27;;;10.07;;
75320;SDS011;68337;52.196;5.660;2023-08-06T00:39:41;12.13;;;10.38;;
75320;SDS011;68337;52.196;5.660;2023-08-06T00:42:07;13.15;;;9.88;;
75320;SDS011;68337;52.196;5.660;2023-08-06T00:44:33;18.20;;;10.75;;
75320;SDS011;68337;52.196;5.660;2023-08-06T00:46:58;12.85;;;11.43;;
75320;SDS011;68337;52.196;5.660;2023-08-06T00:49:24;12.05;;;10.45;;
75320;SDS011;68337;52.196;5.660;2023-08-06T00:51:50;11.25;;;9.77;;
75320;SDS011;68337;52.196;5.660;2023-08-06T00:54:16;12.40;;;10.80;;
75320;SDS011;68337;52.196;5.660;2023-08-06T00:56:42;13.32;;;10.52;;
75320;SDS011;68337;52.196;5.660;2023-08-06T00:59:08;12.65;;;11.23;;
75320;SDS011;68337;52.196;5.660;2023-08-06T01:01:35;11.45;;;10.25;;
75320;SDS011;68337;52.196;5.660;2023-08-06T01:04:01;12.98;;;10.63;;
75320;SDS011;68337;52.196;5.660;2023-08-06T01:09:28;13.65;;;12.20;;
75320;SDS011;68337;52.196;5.660;2023-08-06T01:14:43;14.23;;;12.55;;
75320;SDS011;68337;52.196;5.660;2023-08-06T01:17:23;13.30;;;11.27;;
75320;SDS011;68337;52.196;5.660;2023-08-06T01:19:51;15.90;;;12.95;;
75320;SDS011;68337;52.196;5.660;2023-08-06T01:22:17;17.40;;;13.13;;
75320;SDS011;68337;52.196;5.660;2023-08-06T01:24:44;13.20;;;11.80;;
75320;SDS011;68337;52.196;5.660;2023-08-06T01:30:03;15.98;;;12.07;;
75320;SDS011;68337;52.196;5.660;2023-08-06T01:32:34;14.60;;;12.15;;
75320;SDS011;68337;52.196;5.660;2023-08-06T01:35:02;15.00;;;12.63;;
75320;SDS011;68337;52.196;5.660;2023-08-06T01:37:29;18.73;;;13.55;;
75320;SDS011;68337;52.196;5.660;2023-08-06T01:39:55;18.20;;;13.57;;
75320;SDS011;68337;52.196;5.660;2023-08-06T01:42:21;15.57;;;12.43;;
75320;SDS011;68337;52.196;5.660;2023-08-06T01:44:47;18.17;;;12.88;;
75320;SDS011;68337;52.196;5.660;2023-08-06T01:47:12;16.98;;;13.48;;
75320;SDS011;68337;52.196;5.660;2023-08-06T01:49:38;17.88;;;13.10;;
75320;SDS011;68337;52.196;5.660;2023-08-06T01:52:04;16.13;;;13.18;;
75320;SDS011;68337;52.196;5.660;2023-08-06T01:54:30;17.38;;;13.10;;
75320;SDS011;68337;52.196;5.660;2023-08-06T01:56:56;14.90;;;12.70;;
75320;SDS011;68337;52.196;5.660;2023-08-06T01:59:23;19.15;;;14.35;;
75320;SDS011;68337;52.196;5.660;2023-08-06T02:01:49;14.45;;;12.45;;
75320;SDS011;68337;52.196;5.660;2023-08-06T02:04:15;16.58;;;13.75;;
75320;SDS011;68337;52.196;5.660;2023-08-06T02:06:40;15.40;;;13.35;;
75320;SDS011;68337;52.196;5.660;2023-08-06T02:09:06;16.20;;;13.75;;
75320;SDS011;68337;52.196;5.660;2023-08-06T02:11:32;16.10;;;12.65;;
75320;SDS011;68337;52.196;5.660;2023-08-06T02:13:57;17.85;;;13.73;;
75320;SDS011;68337;52.196;5.660;2023-08-06T02:16:23;17.80;;;14.07;;
75320;SDS011;68337;52.196;5.660;2023-08-06T02:18:49;16.70;;;12.55;;
75320;SDS011;68337;52.196;5.660;2023-08-06T02:21:14;16.88;;;12.77;;
75320;SDS011;68337;52.196;5.660;2023-08-06T02:23:40;17.35;;;13.00;;
75320;SDS011;68337;52.196;5.660;2023-08-06T02:26:06;15.10;;;12.85;;
75320;SDS011;68337;52.196;5.660;2023-08-06T02:28:31;22.05;;;12.52;;
75320;SDS011;68337;52.196;5.660;2023-08-06T02:31:00;16.65;;;14.20;;
75320;SDS011;68337;52.196;5.660;2023-08-06T02:33:31;14.45;;;12.95;;
75320;SDS011;68337;52.196;5.660;2023-08-06T02:36:00;20.02;;;13.43;;
75320;SDS011;68337;52.196;5.660;2023-08-06T02:38:29;14.98;;;13.35;;
75320;SDS011;68337;52.196;5.660;2023-08-06T02:40:56;17.75;;;13.05;;
75320;SDS011;68337;52.196;5.660;2023-08-06T02:43:22;16.17;;;14.25;;
75320;SDS011;68337;52.196;5.660;2023-08-06T02:45:47;15.77;;;12.95;;
75320;SDS011;68337;52.196;5.660;2023-08-06T02:48:13;15.80;;;13.75;;
75320;SDS011;68337;52.196;5.660;2023-08-06T02:50:42;18.95;;;13.35;;
75320;SDS011;68337;52.196;5.660;2023-08-06T02:53:08;17.58;;;13.98;;
75320;SDS011;68337;52.196;5.660;2023-08-06T02:55:34;20.08;;;13.82;;
75320;SDS011;68337;52.196;5.660;2023-08-06T02:58:01;15.20;;;12.90;;
75320;SDS011;68337;52.196;5.660;2023-08-06T03:00:27;15.10;;;13.32;;
75320;SDS011;68337;52.196;5.660;2023-08-06T03:02:53;15.90;;;14.10;;
75320;SDS011;68337;52.196;5.660;2023-08-06T03:05:19;20.48;;;14.88;;
75320;SDS011;68337;52.196;5.660;2023-08-06T03:07:45;20.08;;;14.68;;
75320;SDS011;68337;52.196;5.660;2023-08-06T03:10:11;22.77;;;15.05;;
75320;SDS011;68337;52.196;5.660;2023-08-06T03:12:38;20.52;;;14.13;;
75320;SDS011;68337;52.196;5.660;2023-08-06T03:15:04;17.15;;;15.35;;
75320;SDS011;68337;52.196;5.660;2023-08-06T03:17:30;19.40;;;14.70;;
75320;SDS011;68337;52.196;5.660;2023-08-06T03:19:56;19.13;;;15.95;;
75320;SDS011;68337;52.196;5.660;2023-08-06T03:22:21;18.85;;;15.27;;
75320;SDS011;68337;52.196;5.660;2023-08-06T03:24:50;30.73;;;16.73;;
75320;SDS011;68337;52.196;5.660;2023-08-06T03:27:16;21.67;;;16.45;;
75320;SDS011;68337;52.196;5.660;2023-08-06T03:29:42;24.17;;;16.25;;
75320;SDS011;68337;52.196;5.660;2023-08-06T03:32:08;18.65;;;14.98;;
75320;SDS011;68337;52.196;5.660;2023-08-06T03:34:33;19.75;;;15.65;;
75320;SDS011;68337;52.196;5.660;2023-08-06T03:36:59;17.98;;;13.95;;
75320;SDS011;68337;52.196;5.660;2023-08-06T03:39:27;18.27;;;15.80;;
75320;SDS011;68337;52.196;5.660;2023-08-06T03:41:52;16.13;;;13.73;;
75320;SDS011;68337;52.196;5.660;2023-08-06T03:44:18;18.38;;;14.52;;
75320;SDS011;68337;52.196;5.660;2023-08-06T03:46:44;16.25;;;13.38;;
75320;SDS011;68337;52.196;5.660;2023-08-06T03:49:09;17.85;;;14.55;;
75320;SDS011;68337;52.196;5.660;2023-08-06T03:51:35;18.33;;;15.75;;
75320;SDS011;68337;52.196;5.660;2023-08-06T03:54:01;17.10;;;15.30;;
75320;SDS011;68337;52.196;5.660;2023-08-06T03:56:26;17.48;;;13.57;;
75320;SDS011;68337;52.196;5.660;2023-08-06T03:58:52;18.13;;;14.55;;
75320;SDS011;68337;52.196;5.660;2023-08-06T04:01:18;18.33;;;14.77;;
75320;SDS011;68337;52.196;5.660;2023-08-06T04:03:44;16.83;;;14.15;;
75320;SDS011;68337;52.196;5.660;2023-08-06T04:06:09;17.05;;;14.68;;
75320;SDS011;68337;52.196;5.660;2023-08-06T04:08:35;15.73;;;13.82;;
75320;SDS011;68337;52.196;5.660;2023-08-06T04:11:01;18.38;;;14.88;;
75320;SDS011;68337;52.196;5.660;2023-08-06T04:13:26;16.58;;;14.60;;
75320;SDS011;68337;52.196;5.660;2023-08-06T04:15:52;20.10;;;16.52;;
75320;SDS011;68337;52.196;5.660;2023-08-06T04:18:19;18.30;;;15.57;;
75320;SDS011;68337;52.196;5.660;2023-08-06T04:20:45;16.73;;;14.80;;
75320;SDS011;68337;52.196;5.660;2023-08-06T04:23:11;18.40;;;15.70;;
75320;SDS011;68337;52.196;5.660;2023-08-06T04:25:37;19.17;;;15.63;;
75320;SDS011;68337;52.196;5.660;2023-08-06T04:28:04;19.52;;;16.17;;
75320;SDS011;68337;52.196;5.660;2023-08-06T04:30:29;24.52;;;15.18;;
75320;SDS011;68337;52.196;5.660;2023-08-06T04:32:58;24.60;;;16.40;;
75320;SDS011;68337;52.196;5.660;2023-08-06T04:35:24;18.33;;;14.90;;
75320;SDS011;68337;52.196;5.660;2023-08-06T04:37:50;21.40;;;16.23;;
75320;SDS011;68337;52.196;5.660;2023-08-06T04:40:16;18.83;;;16.65;;
75320;SDS011;68337;52.196;5.660;2023-08-06T04:42:42;21.88;;;16.38;;
75320;SDS011;68337;52.196;5.660;2023-08-06T04:45:07;17.13;;;15.13;;
75320;SDS011;68337;52.196;5.660;2023-08-06T04:47:34;19.75;;;16.33;;
75320;SDS011;68337;52.196;5.660;2023-08-06T04:49:59;17.60;;;15.70;;
75320;SDS011;68337;52.196;5.660;2023-08-06T04:52:25;21.73;;;15.95;;
75320;SDS011;68337;52.196;5.660;2023-08-06T04:54:54;18.88;;;16.10;;
75320;SDS011;68337;52.196;5.660;2023-08-06T04:57:20;19.70;;;17.38;;
75320;SDS011;68337;52.196;5.660;2023-08-06T04:59:46;19.67;;;16.33;;
75320;SDS011;68337;52.196;5.660;2023-08-06T05:02:12;20.70;;;17.35;;
75320;SDS011;68337;52.196;5.660;2023-08-06T05:04:38;19.17;;;16.27;;
75320;SDS011;68337;52.196;5.660;2023-08-06T05:07:04;19.70;;;15.65;;
75320;SDS011;68337;52.196;5.660;2023-08-06T05:09:30;21.77;;;17.42;;
75320;SDS011;68337;52.196;5.660;2023-08-06T05:11:56;19.45;;;17.20;;
75320;SDS011;68337;52.196;5.660;2023-08-06T05:14:22;17.98;;;15.50;;
75320;SDS011;68337;52.196;5.660;2023-08-06T05:16:47;20.77;;;15.52;;
75320;SDS011;68337;52.196;5.660;2023-08-06T05:19:13;19.65;;;16.17;;
75320;SDS011;68337;52.196;5.660;2023-08-06T05:21:39;18.55;;;15.70;;
75320;SDS011;68337;52.196;5.660;2023-08-06T05:24:05;18.05;;;14.95;;
75320;SDS011;68337;52.196;5.660;2023-08-06T05:26:30;19.35;;;16.20;;
75320;SDS011;68337;52.196;5.660;2023-08-06T05:28:56;19.48;;;15.43;;
75320;SDS011;68337;52.196;5.660;2023-08-06T05:31:22;17.55;;;15.57;;
75320;SDS011;68337;52.196;5.660;2023-08-06T05:33:48;19.48;;;15.18;;
75320;SDS011;68337;52.196;5.660;2023-08-06T05:36:13;18.35;;;15.48;;
75320;SDS011;68337;52.196;5.660;2023-08-06T05:38:39;17.02;;;13.85;;
75320;SDS011;68337;52.196;5.660;2023-08-06T05:41:05;20.63;;;15.85;;
75320;SDS011;68337;52.196;5.660;2023-08-06T05:43:31;19.63;;;14.77;;
75320;SDS011;68337;52.196;5.660;2023-08-06T05:45:56;14.60;;;13.10;;
75320;SDS011;68337;52.196;5.660;2023-08-06T05:48:22;15.40;;;13.75;;
75320;SDS011;68337;52.196;5.660;2023-08-06T05:50:50;15.35;;;13.68;;
75320;SDS011;68337;52.196;5.660;2023-08-06T05:53:17;16.60;;;14.90;;
75320;SDS011;68337;52.196;5.660;2023-08-06T05:55:43;15.13;;;13.13;;
75320;SDS011;68337;52.196;5.660;2023-08-06T05:58:08;14.00;;;12.55;;
75320;SDS011;68337;52.196;5.660;2023-08-06T06:00:34;13.93;;;12.52;;
75320;SDS011;68337;52.196;5.660;2023-08-06T06:03:00;15.02;;;13.40;;
75320;SDS011;68337;52.196;5.660;2023-08-06T06:05:27;15.65;;;12.10;;
75320;SDS011;68337;52.196;5.660;2023-08-06T06:07:54;16.02;;;13.02;;
75320;SDS011;68337;52.196;5.660;2023-08-06T06:10:20;16.27;;;13.05;;
75320;SDS011;68337;52.196;5.660;2023-08-06T06:12:47;14.93;;;12.90;;
75320;SDS011;68337;52.196;5.660;2023-08-06T06:15:14;13.73;;;11.50;;
75320;SDS011;68337;52.196;5.660;2023-08-06T06:17:40;14.82;;;13.32;;
75320;SDS011;68337;52.196;5.660;2023-08-06T06:20:06;13.50;;;11.18;;
75320;SDS011;68337;52.196;5.660;2023-08-06T06:22:36;12.13;;;10.77;;
75320;SDS011;68337;52.196;5.660;2023-08-06T06:25:02;13.02;;;11.63;;
75320;SDS011;68337;52.196;5.660;2023-08-06T06:27:28;13.43;;;11.68;;
75320;SDS011;68337;52.196;5.660;2023-08-06T06:29:57;11.43;;;10.23;;
75320;SDS011;68337;52.196;5.660;2023-08-06T06:32:23;10.43;;;8.93;;
75320;SDS011;68337;52.196;5.660;2023-08-06T06:34:50;10.32;;;9.15;;
75320;SDS011;68337;52.196;5.660;2023-08-06T06:37:16;10.82;;;9.73;;
75320;SDS011;68337;52.196;5.660;2023-08-06T06:39:42;9.88;;;8.88;;
75320;SDS011;68337;52.196;5.660;2023-08-06T06:42:10;10.70;;;9.70;;
75320;SDS011;68337;52.196;5.660;2023-08-06T06:44:36;10.93;;;9.88;;
75320;SDS011;68337;52.196;5.660;2023-08-06T06:47:02;10.95;;;9.82;;
75320;SDS011;68337;52.196;5.660;2023-08-06T06:49:31;10.02;;;9.05;;
75320;SDS011;68337;52.196;5.660;2023-08-06T06:51:56;10.80;;;9.70;;
75320;SDS011;68337;52.196;5.660;2023-08-06T06:54:22;10.93;;;9.68;;
75320;SDS011;68337;52.196;5.660;2023-08-06T06:56:48;11.48;;;9.80;;
75320;SDS011;68337;52.196;5.660;2023-08-06T06:59:14;9.48;;;8.57;;
75320;SDS011;68337;52.196;5.660;2023-08-06T07:01:40;10.98;;;8.85;;
75320;SDS011;68337;52.196;5.660;2023-08-06T07:04:05;10.32;;;9.32;;
75320;SDS011;68337;52.196;5.660;2023-08-06T07:06:31;11.80;;;9.27;;
75320;SDS011;68337;52.196;5.660;2023-08-06T07:08:57;10.10;;;8.07;;
75320;SDS011;68337;52.196;5.660;2023-08-06T07:11:23;9.13;;;8.32;;
75320;SDS011;68337;52.196;5.660;2023-08-06T07:13:49;8.35;;;7.65;;
75320;SDS011;68337;52.196;5.660;2023-08-06T07:16:21;8.60;;;7.72;;
75320;SDS011;68337;52.196;5.660;2023-08-06T07:18:46;9.55;;;7.47;;
75320;SDS011;68337;52.196;5.660;2023-08-06T07:21:12;10.43;;;8.70;;
75320;SDS011;68337;52.196;5.660;2023-08-06T07:23:38;8.75;;;7.85;;
75320;SDS011;68337;52.196;5.660;2023-08-06T07:26:03;8.75;;;7.95;;
75320;SDS011;68337;52.196;5.660;2023-08-06T07:28:29;7.18;;;6.53;;
75320;SDS011;68337;52.196;5.660;2023-08-06T07:30:55;7.75;;;6.95;;
75320;SDS011;68337;52.196;5.660;2023-08-06T07:33:20;8.68;;;7.88;;
75320;SDS011;68337;52.196;5.660;2023-08-06T07:35:46;7.68;;;6.07;;
75320;SDS011;68337;52.196;5.660;2023-08-06T07:38:12;7.05;;;6.35;;
75320;SDS011;68337;52.196;5.660;2023-08-06T07:40:38;6.82;;;6.13;;
75320;SDS011;68337;52.196;5.660;2023-08-06T07:43:04;7.32;;;6.68;;
75320;SDS011;68337;52.196;5.660;2023-08-06T07:45:34;6.15;;;5.65;;
75320;SDS011;68337;52.196;5.660;2023-08-06T07:48:00;6.03;;;5.43;;
75320;SDS011;68337;52.196;5.660;2023-08-06T07:50:27;9.23;;;6.70;;
75320;SDS011;68337;52.196;5.660;2023-08-06T07:52:52;10.27;;;7.47;;
75320;SDS011;68337;52.196;5.660;2023-08-06T07:55:18;9.85;;;7.65;;
75320;SDS011;68337;52.196;5.660;2023-08-06T07:57:44;7.47;;;6.78;;
75320;SDS011;68337;52.196;5.660;2023-08-06T08:00:10;9.15;;;7.30;;
75320;SDS011;68337;52.196;5.660;2023-08-06T08:02:36;8.55;;;7.78;;
75320;SDS011;68337;52.196;5.660;2023-08-06T08:05:02;8.48;;;7.75;;
75320;SDS011;68337;52.196;5.660;2023-08-06T08:07:27;10.00;;;8.15;;
75320;SDS011;68337;52.196;5.660;2023-08-06T08:09:55;8.50;;;7.70;;
75320;SDS011;68337;52.196;5.660;2023-08-06T08:12:21;10.35;;;9.23;;
75320;SDS011;68337;52.196;5.660;2023-08-06T08:14:47;13.43;;;11.80;;
75320;SDS011;68337;52.196;5.660;2023-08-06T08:17:13;13.30;;;12.00;;
75320;SDS011;68337;52.196;5.660;2023-08-06T08:19:40;14.32;;;12.93;;
75320;SDS011;68337;52.196;5.660;2023-08-06T08:22:05;14.85;;;13.38;;
75320;SDS011;68337;52.196;5.660;2023-08-06T08:24:31;15.93;;;14.32;;
75320;SDS011;68337;52.196;5.660;2023-08-06T08:26:57;16.42;;;14.38;;
75320;SDS011;68337;52.196;5.660;2023-08-06T08:29:23;16.08;;;14.48;;
75320;SDS011;68337;52.196;5.660;2023-08-06T08:31:49;16.73;;;14.52;;
75320;SDS011;68337;52.196;5.660;2023-08-06T08:34:18;16.98;;;15.30;;
75320;SDS011;68337;52.196;5.660;2023-08-06T08:36:44;17.50;;;15.55;;
75320;SDS011;68337;52.196;5.660;2023-08-06T08:39:12;21.02;;;16.88;;
75320;SDS011;68337;52.196;5.660;2023-08-06T08:41:38;20.20;;;15.80;;
75320;SDS011;68337;52.196;5.660;2023-08-06T08:44:08;23.15;;;16.65;;
75320;SDS011;68337;52.196;5.660;2023-08-06T08:46:38;19.05;;;16.23;;
75320;SDS011;68337;52.196;5.660;2023-08-06T08:49:06;18.17;;;16.23;;
75320;SDS011;68337;52.196;5.660;2023-08-06T08:51:32;19.85;;;17.75;;
75320;SDS011;68337;52.196;5.660;2023-08-06T08:53:59;21.23;;;16.83;;
75320;SDS011;68337;52.196;5.660;2023-08-06T08:56:28;19.15;;;17.15;;
75320;SDS011;68337;52.196;5.660;2023-08-06T08:58:54;23.88;;;18.33;;
75320;SDS011;68337;52.196;5.660;2023-08-06T09:01:23;22.00;;;17.58;;
75320;SDS011;68337;52.196;5.660;2023-08-06T09:03:50;26.45;;;19.63;;
75320;SDS011;68337;52.196;5.660;2023-08-06T09:06:19;21.23;;;18.70;;
75320;SDS011;68337;52.196;5.660;2023-08-06T09:08:54;27.42;;;20.90;;
75320;SDS011;68337;52.196;5.660;2023-08-06T09:11:26;28.92;;;22.23;;
75320;SDS011;68337;52.196;5.660;2023-08-06T09:13:52;26.67;;;20.98;;
75320;SDS011;68337;52.196;5.660;2023-08-06T09:16:19;24.67;;;21.05;;
75320;SDS011;68337;52.196;5.660;2023-08-06T09:18:45;23.77;;;20.52;;
75320;SDS011;68337;52.196;5.660;2023-08-06T09:21:14;28.83;;;22.42;;
75320;SDS011;68337;52.196;5.660;2023-08-06T09:23:41;29.35;;;21.80;;
75320;SDS011;68337;52.196;5.660;2023-08-06T09:26:07;26.70;;;23.55;;
75320;SDS011;68337;52.196;5.660;2023-08-06T09:28:37;27.15;;;22.65;;
75320;SDS011;68337;52.196;5.660;2023-08-06T09:31:04;28.00;;;23.30;;
75320;SDS011;68337;52.196;5.660;2023-08-06T09:33:30;26.30;;;22.45;;
75320;SDS011;68337;52.196;5.660;2023-08-06T09:35:55;28.27;;;24.00;;
75320;SDS011;68337;52.196;5.660;2023-08-06T09:38:21;27.60;;;21.95;;
75320;SDS011;68337;52.196;5.660;2023-08-06T09:40:47;28.35;;;23.05;;
75320;SDS011;68337;52.196;5.660;2023-08-06T09:43:13;26.83;;;21.85;;
75320;SDS011;68337;52.196;5.660;2023-08-06T09:45:39;29.30;;;23.13;;
75320;SDS011;68337;52.196;5.660;2023-08-06T09:48:05;24.27;;;21.67;;
75320;SDS011;68337;52.196;5.660;2023-08-06T09:50:33;23.20;;;20.27;;
75320;SDS011;68337;52.196;5.660;2023-08-06T09:53:01;23.65;;;20.65;;
75320;SDS011;68337;52.196;5.660;2023-08-06T09:55:28;24.92;;;22.10;;
75320;SDS011;68337;52.196;5.660;2023-08-06T09:57:54;23.27;;;20.80;;
75320;SDS011;68337;52.196;5.660;2023-08-06T10:00:21;23.83;;;20.35;;
75320;SDS011;68337;52.196;5.660;2023-08-06T10:02:48;25.83;;;20.90;;
75320;SDS011;68337;52.196;5.660;2023-08-06T10:05:16;23.05;;;20.50;;
75320;SDS011;68337;52.196;5.660;2023-08-06T10:07:43;25.13;;;22.08;;
75320;SDS011;68337;52.196;5.660;2023-08-06T10:10:10;21.45;;;18.50;;
75320;SDS011;68337;52.196;5.660;2023-08-06T10:12:37;7.18;;;6.47;;
75320;SDS011;68337;52.196;5.660;2023-08-06T10:15:11;4.93;;;4.53;;
75320;SDS011;68337;52.196;5.660;2023-08-06T10:17:40;3.80;;;3.22;;
75320;SDS011;68337;52.196;5.660;2023-08-06T10:20:07;3.58;;;3.15;;
75320;SDS011;68337;52.196;5.660;2023-08-06T10:22:35;3.30;;;3.00;;
75320;SDS011;68337;52.196;5.660;2023-08-06T10:25:01;4.35;;;3.42;;
75320;SDS011;68337;52.196;5.660;2023-08-06T10:32:52;4.18;;;3.78;;
75320;SDS011;68337;52.196;5.660;2023-08-06T10:38:09;3.03;;;2.83;;
75320;SDS011;68337;52.196;5.660;2023-08-06T10:40:36;2.83;;;2.63;;
75320;SDS011;68337;52.196;5.660;2023-08-06T10:43:04;2.55;;;2.35;;
75320;SDS011;68337;52.196;5.660;2023-08-06T10:45:35;2.53;;;2.10;;
75320;SDS011;68337;52.196;5.660;2023-08-06T10:48:02;1.85;;;1.75;;
75320;SDS011;68337;52.196;5.660;2023-08-06T10:50:29;2.65;;;2.00;;
75320;SDS011;68337;52.196;5.660;2023-08-06T10:52:56;4.68;;;2.45;;
75320;SDS011;68337;52.196;5.660;2023-08-06T10:55:23;4.95;;;2.72;;
75320;SDS011;68337;52.196;5.660;2023-08-06T10:57:53;2.72;;;2.47;;
75320;SDS011;68337;52.196;5.660;2023-08-06T11:00:20;3.65;;;2.65;;
75320;SDS011;68337;52.196;5.660;2023-08-06T11:02:48;6.68;;;2.30;;
75320;SDS011;68337;52.196;5.660;2023-08-06T11:05:14;2.15;;;1.98;;
75320;SDS011;68337;52.196;5.660;2023-08-06T11:07:40;4.97;;;2.45;;
75320;SDS011;68337;52.196;5.660;2023-08-06T11:10:08;6.80;;;3.13;;
75320;SDS011;68337;52.196;5.660;2023-08-06T11:12:35;7.30;;;3.55;;
75320;SDS011;68337;52.196;5.660;2023-08-06T11:15:01;6.65;;;4.03;;
75320;SDS011;68337;52.196;5.660;2023-08-06T11:17:28;5.38;;;4.07;;
75320;SDS011;68337;52.196;5.660;2023-08-06T11:19:56;6.47;;;4.65;;
75320;SDS011;68337;52.196;5.660;2023-08-06T11:22:25;4.05;;;3.65;;
75320;SDS011;68337;52.196;5.660;2023-08-06T11:24:52;6.00;;;4.20;;
75320;SDS011;68337;52.196;5.660;2023-08-06T11:27:19;6.93;;;4.13;;
75320;SDS011;68337;52.196;5.660;2023-08-06T11:29:45;5.10;;;3.80;;
75320;SDS011;68337;52.196;5.660;2023-08-06T11:32:11;5.30;;;4.10;;
75320;SDS011;68337;52.196;5.660;2023-08-06T11:34:37;6.43;;;3.95;;
75320;SDS011;68337;52.196;5.660;2023-08-06T11:37:04;8.13;;;4.30;;
75320;SDS011;68337;52.196;5.660;2023-08-06T11:39:32;8.48;;;5.28;;
75320;SDS011;68337;52.196;5.660;2023-08-06T11:41:58;10.95;;;5.97;;
75320;SDS011;68337;52.196;5.660;2023-08-06T11:44:29;11.07;;;6.25;;
75320;SDS011;68337;52.196;5.660;2023-08-06T11:46:57;14.93;;;6.72;;
75320;SDS011;68337;52.196;5.660;2023-08-06T11:49:45;10.90;;;6.95;;
75320;SDS011;68337;52.196;5.660;2023-08-06T11:52:18;6.63;;;5.63;;
75320;SDS011;68337;52.196;5.660;2023-08-06T11:55:07;10.13;;;6.93;;
75320;SDS011;68337;52.196;5.660;2023-08-06T11:57:33;9.40;;;6.10;;
75320;SDS011;68337;52.196;5.660;2023-08-06T12:00:04;6.90;;;6.18;;
75320;SDS011;68337;52.196;5.660;2023-08-06T12:02:32;13.68;;;7.22;;
75320;SDS011;68337;52.196;5.660;2023-08-06T12:05:09;8.48;;;5.97;;
75320;SDS011;68337;52.196;5.660;2023-08-06T12:07:43;7.65;;;5.78;;
75320;SDS011;68337;52.196;5.660;2023-08-06T12:10:12;10.20;;;6.07;;
75320;SDS011;68337;52.196;5.660;2023-08-06T12:12:39;8.02;;;6.28;;
75320;SDS011;68337;52.196;5.660;2023-08-06T12:15:05;9.82;;;5.78;;
75320;SDS011;68337;52.196;5.660;2023-08-06T12:17:32;8.55;;;5.05;;
75320;SDS011;68337;52.196;5.660;2023-08-06T12:20:04;9.13;;;5.70;;
75320;SDS011;68337;52.196;5.660;2023-08-06T12:22:32;11.68;;;6.25;;
75320;SDS011;68337;52.196;5.660;2023-08-06T12:25:02;10.13;;;5.78;;
75320;SDS011;68337;52.196;5.660;2023-08-06T12:27:36;5.63;;;5.03;;
75320;SDS011;68337;52.196;5.660;2023-08-06T12:30:04;10.02;;;6.25;;
75320;SDS011;68337;52.196;5.660;2023-08-06T12:32:31;7.75;;;6.55;;
75320;SDS011;68337;52.196;5.660;2023-08-06T12:34:58;9.85;;;6.30;;
75320;SDS011;68337;52.196;5.660;2023-08-06T12:37:24;8.77;;;5.90;;
75320;SDS011;68337;52.196;5.660;2023-08-06T12:39:50;12.23;;;6.95;;
75320;SDS011;68337;52.196;5.660;2023-08-06T12:42:16;13.57;;;8.27;;
75320;SDS011;68337;52.196;5.660;2023-08-06T12:44:42;13.27;;;7.95;;
75320;SDS011;68337;52.196;5.660;2023-08-06T12:47:10;12.05;;;8.80;;
75320;SDS011;68337;52.196;5.660;2023-08-06T12:49:36;14.15;;;9.07;;
75320;SDS011;68337;52.196;5.660;2023-08-06T12:52:02;13.80;;;8.40;;
75320;SDS011;68337;52.196;5.660;2023-08-06T12:54:33;10.48;;;8.48;;
75320;SDS011;68337;52.196;5.660;2023-08-06T12:57:03;9.82;;;7.10;;
75320;SDS011;68337;52.196;5.660;2023-08-06T12:59:30;9.32;;;6.38;;
75320;SDS011;68337;52.196;5.660;2023-08-06T13:01:58;10.95;;;6.85;;
75320;SDS011;68337;52.196;5.660;2023-08-06T13:04:24;9.15;;;6.93;;
75320;SDS011;68337;52.196;5.660;2023-08-06T13:06:50;8.90;;;6.30;;
75320;SDS011;68337;52.196;5.660;2023-08-06T13:09:16;9.27;;;6.60;;
75320;SDS011;68337;52.196;5.660;2023-08-06T13:11:42;8.73;;;7.75;;
75320;SDS011;68337;52.196;5.660;2023-08-06T13:14:12;7.97;;;6.82;;
75320;SDS011;68337;52.196;5.660;2023-08-06T13:16:40;9.25;;;7.63;;
75320;SDS011;68337;52.196;5.660;2023-08-06T13:19:07;8.43;;;7.40;;
75320;SDS011;68337;52.196;5.660;2023-08-06T13:24:15;8.82;;;5.68;;
75320;SDS011;68337;52.196;5.660;2023-08-06T13:26:41;7.90;;;5.13;;
75320;SDS011;68337;52.196;5.660;2023-08-06T13:29:07;4.80;;;4.30;;
75320;SDS011;68337;52.196;5.660;2023-08-06T13:31:32;10.88;;;5.10;;
75320;SDS011;68337;52.196;5.660;2023-08-06T13:33:58;6.25;;;4.22;;
75320;SDS011;68337;52.196;5.660;2023-08-06T13:36:24;6.07;;;4.70;;
75320;SDS011;68337;52.196;5.660;2023-08-06T13:38:53;6.10;;;4.30;;
75320;SDS011;68337;52.196;5.660;2023-08-06T13:41:19;5.32;;;4.65;;
75320;SDS011;68337;52.196;5.660;2023-08-06T13:43:45;6.22;;;4.35;;
75320;SDS011;68337;52.196;5.660;2023-08-06T13:46:11;6.88;;;4.70;;
75320;SDS011;68337;52.196;5.660;2023-08-06T13:48:41;11.68;;;5.15;;
75320;SDS011;68337;52.196;5.660;2023-08-06T13:51:10;4.72;;;4.32;;
75320;SDS011;68337;52.196;5.660;2023-08-06T13:53:37;5.80;;;5.25;;
75320;SDS011;68337;52.196;5.660;2023-08-06T13:56:04;9.15;;;4.88;;
75320;SDS011;68337;52.196;5.660;2023-08-06T13:58:31;9.52;;;5.30;;
75320;SDS011;68337;52.196;5.660;2023-08-06T14:00:58;9.60;;;5.85;;
75320;SDS011;68337;52.196;5.660;2023-08-06T14:03:24;8.55;;;6.38;;
75320;SDS011;68337;52.196;5.660;2023-08-06T14:05:50;7.13;;;6.07;;
75320;SDS011;68337;52.196;5.660;2023-08-06T14:08:16;6.60;;;5.68;;
75320;SDS011;68337;52.196;5.660;2023-08-06T14:10:45;8.45;;;5.80;;
75320;SDS011;68337;52.196;5.660;2023-08-06T14:13:11;6.35;;;5.53;;
75320;SDS011;68337;52.196;5.660;2023-08-06T14:15:38;8.77;;;6.43;;
75320;SDS011;68337;52.196;5.660;2023-08-06T14:18:07;9.65;;;6.55;;
75320;SDS011;68337;52.196;5.660;2023-08-06T14:20:36;8.05;;;6.32;;
75320;SDS011;68337;52.196;5.660;2023-08-06T14:23:01;8.57;;;6.20;;
75320;SDS011;68337;52.196;5.660;2023-08-06T14:25:27;9.70;;;6.53;;
75320;SDS011;68337;52.196;5.660;2023-08-06T14:27:53;6.80;;;5.50;;
75320;SDS011;68337;52.196;5.660;2023-08-06T14:30:19;8.55;;;6.22;;
75320;SDS011;68337;52.196;5.660;2023-08-06T14:32:45;11.45;;;6.80;;
75320;SDS011;68337;52.196;5.660;2023-08-06T14:35:10;8.68;;;6.43;;
75320;SDS011;68337;52.196;5.660;2023-08-06T14:37:36;8.75;;;5.72;;
75320;SDS011;68337;52.196;5.660;2023-08-06T14:40:02;9.02;;;6.63;;
75320;SDS011;68337;52.196;5.660;2023-08-06T14:42:28;9.85;;;5.80;;
75320;SDS011;68337;52.196;5.660;2023-08-06T14:44:54;7.40;;;6.25;;
75320;SDS011;68337;52.196;5.660;2023-08-06T14:47:20;6.90;;;6.00;;